SANT Airport Information

Runway Information
Runway 1 Length 9514 ft width 148 ft
Elevation 1439 ft Threshold 0 ft Heading 10
Runway 19 Length 9514 ft Width 148 ft
Elevation 1493 ft Threshold 0 ft Heading 190
Airport Frequencies
Type RDO Name TUCUMAN RD Frequency 122.5 MHZ
Type TWR Name TUCUMAN TW Frequency 119.5 MHZ
Airport Navaids
Type VOR-DME Name Tucuman Frequency 114100 KHZ
Airport Weather Information & NOTAM
ADDS - METARS form results

(0147 UTC 23 April 2018)
 
METAR text: SANT 230100Z 32006KT 9999 FEW040 25/21 Q1010
Conditions at: SANT (TUCUMAN/TENIENTE, AR) observed 0100 UTC 23 April 2018
Temperature: 25.0°C (77°F)
Dewpoint: 21.0°C (70°F) [RH = 79%]
Pressure (altimeter): 29.82 inches Hg (1010.0 mb)
Winds: from the NW (320 degrees) at 7 MPH (6 knots; 3.1 m/s)
Visibility: 6 or more miles (10+ km)
Ceiling: at least 12,000 feet AGL
Clouds: few clouds at 4000 feet AGL
Weather: no significant weather observed at this time